Szeged, Hungary
Current Conditions -  °F | °C
As of 2:45 AM on Saturday 25 Oct 2014 (Local Time) from LHUD Reporting Station
Moderate Fog Moderate Fog  
Wind Chill: 39°   Ceiling: 200
Heat Index: 45°   Visibility: 0.5mi
Dew Point: 43°   Wind: 10mph
Humidity: 93%   Direction: 10°N
Pressure: 30.18"   Gusts: NA
Location:  46.26°N, 20.16°E
Report Text: LHUD 250045Z 01009KT 0800 FG OVC002 07/06 Q1022
Loading
Personal Weather Stations






























Interactive Weather Map
Tropical Storm Tracking
New forecast layout! Learn more

10-Day Weather Forecast

Advertisements
Track Severe Weather on mobile